Pegu, Burma
Current Conditions -  °F | °C
As of 11:00 PM on Saturday 25 Oct 2014 (Local Time) from VYYY Reporting Station
Clear Clear  
Wind Chill: 81°   Ceiling: Unl
Heat Index: 88°   Visibility: 4mi
Dew Point: 79°   Wind: 3mph
Humidity: 94%   Direction: 280°W
Pressure: 29.88"   Gusts: NA
Location:  17.33°N, 96.5°E
Report Text: VYYY 251700Z 28003KT 7000 NSC 27/26 Q1012 NOSIG
Loading
Personal Weather Stations






























Interactive Weather Map
Tropical Storm Tracking
New forecast layout! Learn more

10-Day Weather Forecast

Advertisements
Track Severe Weather on mobile